Time,TemperatureF,DewpointF,PressureIn,WindDirection,WindDirectionDegrees,WindSpeedMPH,WindSpeedGustMPH,Humidity,HourlyPrecipIn,Conditions,Clouds,dailyrainin,SolarRadiationWatts/m^2,SoftwareType,DateUTC
2013-01-28 00:02:00,56.0,49.0,-100.00,East,84,1.0,5.0,77,0.00,,,0.00,0.000000,,2013-01-28 06:02:00,
2013-01-28 00:11:00,56.0,49.0,-100.00,East,84,1.0,5.0,77,0.00,,,0.00,0.000000,,2013-01-28 06:11:00,
2013-01-28 00:32:00,56.0,49.0,-100.00,ESE,107,1.0,7.0,77,0.00,,,0.00,0.000000,,2013-01-28 06:32:00,
2013-01-28 00:42:00,56.0,49.0,-100.00,ESE,107,1.0,7.0,77,0.00,,,0.00,0.000000,,2013-01-28 06:42:00,
2013-01-28 00:52:00,56.0,49.0,-100.00,ESE,107,1.0,7.0,77,0.00,,,0.00,0.000000,,2013-01-28 06:52:00,
2013-01-28 01:02:00,56.0,49.0,-100.00,ESE,107,1.0,7.0,77,0.00,,,0.00,0.000000,,2013-01-28 07:02:00,
2013-01-28 01:11:00,56.0,49.0,-100.00,ESE,107,1.0,7.0,77,0.00,,,0.00,0.000000,,2013-01-28 07:11:00,
2013-01-28 01:42:00,57.0,50.0,-100.00,ESE,108,4.0,6.0,76,0.00,,,0.00,0.000000,,2013-01-28 07:42:00,
2013-01-28 01:52:00,57.0,50.0,-100.00,ESE,108,4.0,6.0,76,0.00,,,0.00,0.000000,,2013-01-28 07:52:00,
2013-01-28 02:01:00,57.0,50.0,-100.00,ESE,108,4.0,6.0,76,0.00,,,0.00,0.000000,,2013-01-28 08:01:00,
2013-01-28 02:11:00,57.0,50.0,-100.00,ESE,108,4.0,6.0,76,0.00,,,0.00,0.000000,,2013-01-28 08:11:00,
2013-01-28 02:42:00,57.0,51.0,-100.00,ESE,108,2.0,6.0,79,0.00,,,0.00,0.000000,,2013-01-28 08:42:00,
2013-01-28 02:52:00,57.0,51.0,-100.00,ESE,108,2.0,6.0,79,0.00,,,0.00,0.000000,,2013-01-28 08:52:00,
2013-01-28 03:02:00,57.0,51.0,-100.00,ESE,108,2.0,6.0,79,0.00,,,0.00,0.000000,,2013-01-28 09:02:00,
2013-01-28 03:11:00,57.0,51.0,-100.00,ESE,108,2.0,6.0,79,0.00,,,0.00,0.000000,,2013-01-28 09:11:00,
2013-01-28 03:32:00,57.0,51.0,-100.00,ESE,122,3.0,6.0,81,0.00,,,0.00,0.000000,,2013-01-28 09:32:00,
2013-01-28 03:42:00,57.0,51.0,-100.00,ESE,122,3.0,6.0,81,0.00,,,0.00,0.000000,,2013-01-28 09:42:00,
2013-01-28 03:52:00,57.0,51.0,-100.00,ESE,122,3.0,6.0,81,0.00,,,0.00,0.000000,,2013-01-28 09:52:00,
2013-01-28 04:02:00,57.0,51.0,-100.00,ESE,122,3.0,6.0,81,0.00,,,0.00,0.000000,,2013-01-28 10:02:00,
2013-01-28 04:11:00,57.0,51.0,-100.00,ESE,122,3.0,6.0,81,0.00,,,0.00,0.000000,,2013-01-28 10:11:00,
2013-01-28 04:42:00,57.0,52.0,-100.00,SE,130,3.0,5.0,83,0.00,,,0.00,0.000000,,2013-01-28 10:42:00,
2013-01-28 04:52:00,57.0,52.0,-100.00,SE,130,3.0,5.0,83,0.00,,,0.00,0.000000,,2013-01-28 10:52:00,
2013-01-28 05:02:00,57.0,52.0,-100.00,SE,130,3.0,5.0,83,0.00,,,0.00,0.000000,,2013-01-28 11:02:00,
2013-01-28 05:11:00,57.0,52.0,-100.00,SE,130,3.0,5.0,83,0.00,,,0.00,0.000000,,2013-01-28 11:11:00,
2013-01-28 05:32:00,57.0,53.0,-100.00,ESE,104,2.0,6.0,86,0.00,,,0.00,0.000000,,2013-01-28 11:32:00,
2013-01-28 05:42:00,57.0,53.0,-100.00,ESE,104,2.0,6.0,86,0.00,,,0.00,0.000000,,2013-01-28 11:42:00,
2013-01-28 05:52:00,57.0,53.0,-100.00,ESE,104,2.0,6.0,86,0.00,,,0.00,0.000000,,2013-01-28 11:52:00,
2013-01-28 06:03:00,57.0,53.0,-100.00,ESE,104,2.0,6.0,86,0.00,,,0.00,0.000000,,2013-01-28 12:03:00,
2013-01-28 06:12:00,57.0,53.0,-100.00,ESE,104,2.0,6.0,86,0.00,,,0.00,0.000000,,2013-01-28 12:12:00,
2013-01-28 06:33:00,57.0,53.0,-100.00,SE,126,5.0,9.0,87,0.00,,,0.00,0.000000,,2013-01-28 12:33:00,
2013-01-28 06:42:00,57.0,53.0,-100.00,SE,126,5.0,9.0,87,0.00,,,0.00,0.000000,,2013-01-28 12:42:00,
2013-01-28 06:52:00,57.0,53.0,-100.00,SE,126,5.0,9.0,87,0.00,,,0.00,0.000000,,2013-01-28 12:52:00,
2013-01-28 07:03:00,57.0,53.0,-100.00,SE,126,5.0,9.0,87,0.00,,,0.00,0.000000,,2013-01-28 13:03:00,
2013-01-28 07:12:00,57.0,53.0,-100.00,SE,126,5.0,9.0,87,0.00,,,0.00,0.000000,,2013-01-28 13:12:00,
2013-01-28 07:33:00,57.0,54.0,-100.00,SE,137,4.0,10.0,90,0.00,,,0.00,5.000000,,2013-01-28 13:33:00,
2013-01-28 07:43:00,57.0,54.0,-100.00,SE,137,4.0,10.0,90,0.00,,,0.00,5.000000,,2013-01-28 13:43:00,
2013-01-28 07:53:00,57.0,54.0,-100.00,SE,137,4.0,10.0,90,0.00,,,0.00,5.000000,,2013-01-28 13:53:00,
2013-01-28 08:03:00,57.0,54.0,-100.00,SE,137,4.0,10.0,90,0.00,,,0.00,5.000000,,2013-01-28 14:03:00,
2013-01-28 08:12:00,57.0,54.0,-100.00,SE,137,4.0,10.0,90,0.00,,,0.00,5.000000,,2013-01-28 14:12:00,
2013-01-28 08:43:00,57.0,56.0,-100.00,SE,135,4.0,8.0,95,0.00,,,0.00,24.000000,,2013-01-28 14:43:00,
2013-01-28 08:53:00,57.0,56.0,-100.00,SE,135,4.0,8.0,95,0.00,,,0.00,24.000000,,2013-01-28 14:53:00,
2013-01-28 09:03:00,57.0,56.0,-100.00,SE,135,4.0,8.0,95,0.00,,,0.00,24.000000,,2013-01-28 15:03:00,
2013-01-28 09:12:00,57.0,56.0,-100.00,SE,135,4.0,8.0,95,0.00,,,0.00,24.000000,,2013-01-28 15:12:00,
2013-01-28 09:33:00,58.0,57.0,-100.00,SE,132,3.0,9.0,96,0.00,,,0.00,52.000000,,2013-01-28 15:33:00,
2013-01-28 09:43:00,58.0,57.0,-100.00,SE,132,3.0,9.0,96,0.00,,,0.00,52.000000,,2013-01-28 15:43:00,
2013-01-28 09:53:00,58.0,57.0,-100.00,SE,132,3.0,9.0,96,0.00,,,0.00,52.000000,,2013-01-28 15:53:00,
2013-01-28 10:04:00,58.0,57.0,-100.00,SE,132,3.0,9.0,96,0.00,,,0.00,52.000000,,2013-01-28 16:04:00,
2013-01-28 10:12:00,58.0,57.0,-100.00,SE,132,3.0,9.0,96,0.00,,,0.00,52.000000,,2013-01-28 16:12:00,
2013-01-28 10:33:00,61.0,58.0,-100.00,SSE,149,2.0,6.0,90,0.00,,,0.00,109.000000,,2013-01-28 16:33:00,
2013-01-28 10:43:00,61.0,58.0,-100.00,SSE,149,2.0,6.0,90,0.00,,,0.00,109.000000,,2013-01-28 16:43:00,
2013-01-28 10:53:00,61.0,58.0,-100.00,SSE,149,2.0,6.0,90,0.00,,,0.00,109.000000,,2013-01-28 16:53:00,
2013-01-28 11:02:00,61.0,58.0,-100.00,SSE,149,2.0,6.0,90,0.00,,,0.00,109.000000,,2013-01-28 17:02:00,
2013-01-28 11:12:00,61.0,58.0,-100.00,SSE,149,2.0,6.0,90,0.00,,,0.00,109.000000,,2013-01-28 17:12:00,
2013-01-28 11:33:00,63.0,58.0,-100.00,SE,141,3.0,9.0,85,0.00,,,0.00,151.000000,,2013-01-28 17:33:00,
2013-01-28 11:42:00,63.0,58.0,-100.00,SE,141,3.0,9.0,85,0.00,,,0.00,151.000000,,2013-01-28 17:42:00,
2013-01-28 11:53:00,63.0,58.0,-100.00,SE,141,3.0,9.0,85,0.00,,,0.00,151.000000,,2013-01-28 17:53:00,
2013-01-28 12:03:00,63.0,58.0,-100.00,SE,141,3.0,9.0,85,0.00,,,0.00,151.000000,,2013-01-28 18:03:00,
2013-01-28 12:12:00,63.0,58.0,-100.00,SE,141,3.0,9.0,85,0.00,,,0.00,151.000000,,2013-01-28 18:12:00,
2013-01-28 12:33:00,66.0,59.0,-100.00,SSE,167,3.0,8.0,77,0.00,,,0.00,218.000000,,2013-01-28 18:33:00,
2013-01-28 12:43:00,66.0,59.0,-100.00,SSE,167,3.0,8.0,77,0.00,,,0.00,218.000000,,2013-01-28 18:43:00,
2013-01-28 12:52:00,66.0,59.0,-100.00,SSE,167,3.0,8.0,77,0.00,,,0.00,218.000000,,2013-01-28 18:52:00,
2013-01-28 13:02:00,66.0,59.0,-100.00,SSE,167,3.0,8.0,77,0.00,,,0.00,218.000000,,2013-01-28 19:02:00,
2013-01-28 13:12:00,66.0,59.0,-100.00,SSE,167,3.0,8.0,77,0.00,,,0.00,218.000000,,2013-01-28 19:12:00,
2013-01-28 13:43:00,69.0,59.0,-100.00,SSE,168,5.0,10.0,71,0.00,,,0.00,291.000000,,2013-01-28 19:43:00,
2013-01-28 13:52:00,69.0,59.0,-100.00,SSE,168,5.0,10.0,71,0.00,,,0.00,291.000000,,2013-01-28 19:52:00,
2013-01-28 14:02:00,69.0,59.0,-100.00,SSE,168,5.0,10.0,71,0.00,,,0.00,291.000000,,2013-01-28 20:02:00,
2013-01-28 14:12:00,69.0,59.0,-100.00,SSE,168,5.0,10.0,71,0.00,,,0.00,291.000000,,2013-01-28 20:12:00,
2013-01-28 14:43:00,72.0,60.0,-100.00,SSE,156,4.0,8.0,67,0.00,,,0.00,311.000000,,2013-01-28 20:43:00,
2013-01-28 14:53:00,72.0,60.0,-100.00,SSE,156,4.0,8.0,67,0.00,,,0.00,311.000000,,2013-01-28 20:53:00,
2013-01-28 15:03:00,72.0,60.0,-100.00,SSE,156,4.0,8.0,67,0.00,,,0.00,311.000000,,2013-01-28 21:03:00,
2013-01-28 15:12:00,72.0,60.0,-100.00,SSE,156,4.0,8.0,67,0.00,,,0.00,311.000000,,2013-01-28 21:12:00,
2013-01-28 15:43:00,71.0,59.0,-100.00,South,177,4.0,8.0,67,0.00,,,0.00,288.000000,,2013-01-28 21:43:00,
2013-01-28 15:53:00,71.0,59.0,-100.00,South,177,4.0,8.0,67,0.00,,,0.00,288.000000,,2013-01-28 21:53:00,
2013-01-28 16:02:00,71.0,59.0,-100.00,South,177,4.0,8.0,67,0.00,,,0.00,288.000000,,2013-01-28 22:02:00,
2013-01-28 16:11:00,71.0,59.0,-100.00,South,177,4.0,8.0,67,0.00,,,0.00,288.000000,,2013-01-28 22:11:00,
2013-01-28 16:42:00,69.0,60.0,-100.00,SSW,197,2.0,8.0,74,0.00,,,0.00,92.000000,,2013-01-28 22:42:00,
2013-01-28 16:52:00,69.0,60.0,-100.00,SSW,197,2.0,8.0,74,0.00,,,0.00,92.000000,,2013-01-28 22:52:00,
2013-01-28 17:02:00,69.0,60.0,-100.00,SSW,197,2.0,8.0,74,0.00,,,0.00,92.000000,,2013-01-28 23:02:00,
2013-01-28 17:12:00,69.0,60.0,-100.00,SSW,197,2.0,8.0,74,0.00,,,0.00,92.000000,,2013-01-28 23:12:00,
2013-01-28 17:33:00,66.0,61.0,-100.00,NNW,331,0.0,7.0,84,0.00,,,0.00,29.000000,,2013-01-28 23:33:00,
2013-01-28 17:42:00,66.0,61.0,-100.00,NNW,331,0.0,7.0,84,0.00,,,0.00,29.000000,,2013-01-28 23:42:00,
2013-01-28 17:53:00,66.0,61.0,-100.00,NNW,331,0.0,7.0,84,0.00,,,0.00,29.000000,,2013-01-28 23:53:00,
2013-01-28 18:02:00,66.0,61.0,-100.00,NNW,331,0.0,7.0,84,0.00,,,0.00,29.000000,,2013-01-29 00:02:00,
2013-01-28 18:12:00,66.0,61.0,-100.00,NNW,331,0.0,7.0,84,0.00,,,0.00,29.000000,,2013-01-29 00:12:00,
2013-01-28 18:33:00,62.0,60.0,-100.00,SSE,159,2.0,3.0,92,0.00,,,0.00,1.000000,,2013-01-29 00:33:00,
2013-01-28 18:42:00,62.0,60.0,-100.00,SSE,159,2.0,3.0,92,0.00,,,0.00,1.000000,,2013-01-29 00:42:00,
2013-01-28 18:52:00,62.0,60.0,-100.00,SSE,159,2.0,3.0,92,0.00,,,0.00,1.000000,,2013-01-29 00:52:00,
2013-01-28 19:02:00,62.0,60.0,-100.00,SSE,159,2.0,3.0,92,0.00,,,0.00,1.000000,,2013-01-29 01:02:00,
2013-01-28 19:12:00,62.0,60.0,-100.00,SSE,159,2.0,3.0,92,0.00,,,0.00,1.000000,,2013-01-29 01:12:00,
2013-01-28 19:42:00,61.0,59.0,-100.00,North,355,0.0,2.0,94,0.00,,,0.00,0.000000,,2013-01-29 01:42:00,
2013-01-28 19:53:00,61.0,59.0,-100.00,North,355,0.0,2.0,94,0.00,,,0.00,0.000000,,2013-01-29 01:53:00,
2013-01-28 20:02:00,61.0,59.0,-100.00,North,355,0.0,2.0,94,0.00,,,0.00,0.000000,,2013-01-29 02:02:00,
2013-01-28 20:12:00,61.0,59.0,-100.00,North,355,0.0,2.0,94,0.00,,,0.00,0.000000,,2013-01-29 02:12:00,
2013-01-28 20:42:00,59.0,58.0,-100.00,ENE,69,0.0,3.0,96,0.00,,,0.00,0.000000,,2013-01-29 02:42:00,
2013-01-28 20:53:00,59.0,58.0,-100.00,ENE,69,0.0,3.0,96,0.00,,,0.00,0.000000,,2013-01-29 02:53:00,
2013-01-28 21:03:00,59.0,58.0,-100.00,ENE,69,0.0,3.0,96,0.00,,,0.00,0.000000,,2013-01-29 03:03:00,
2013-01-28 21:11:00,59.0,58.0,-100.00,ENE,69,0.0,3.0,96,0.00,,,0.00,0.000000,,2013-01-29 03:11:00,
2013-01-28 21:32:00,59.0,58.0,-100.00,SSE,159,0.0,4.0,97,0.00,,,0.00,0.000000,,2013-01-29 03:32:00,
2013-01-28 21:42:00,59.0,58.0,-100.00,SSE,159,0.0,4.0,97,0.00,,,0.00,0.000000,,2013-01-29 03:42:00,
2013-01-28 21:53:00,59.0,58.0,-100.00,SSE,159,0.0,4.0,97,0.00,,,0.00,0.000000,,2013-01-29 03:53:00,
2013-01-28 22:02:00,59.0,58.0,-100.00,SSE,159,0.0,4.0,97,0.00,,,0.00,0.000000,,2013-01-29 04:02:00,
2013-01-28 22:11:00,59.0,58.0,-100.00,SSE,159,0.0,4.0,97,0.00,,,0.00,0.000000,,2013-01-29 04:11:00,
2013-01-28 22:32:00,61.0,60.0,-100.00,SSE,157,3.0,6.0,97,0.00,,,0.00,0.000000,,2013-01-29 04:32:00,
2013-01-28 22:42:00,61.0,60.0,-100.00,SSE,157,3.0,6.0,97,0.00,,,0.00,0.000000,,2013-01-29 04:42:00,
2013-01-28 22:52:00,61.0,60.0,-100.00,SSE,157,3.0,6.0,97,0.00,,,0.00,0.000000,,2013-01-29 04:52:00,
2013-01-28 23:03:00,61.0,60.0,-100.00,SSE,157,3.0,6.0,97,0.00,,,0.00,0.000000,,2013-01-29 05:03:00,
2013-01-28 23:12:00,61.0,60.0,-100.00,SSE,157,3.0,6.0,97,0.00,,,0.00,0.000000,,2013-01-29 05:12:00,
2013-01-28 23:32:00,63.0,61.0,-100.00,SSE,151,3.0,8.0,93,0.00,,,0.00,0.000000,,2013-01-29 05:32:00,
2013-01-28 23:43:00,63.0,61.0,-100.00,SSE,151,3.0,8.0,93,0.00,,,0.00,0.000000,,2013-01-29 05:43:00,
2013-01-28 23:52:00,63.0,61.0,-100.00,SSE,151,3.0,8.0,93,0.00,,,0.00,0.000000,,2013-01-29 05:52:00,